sensor_id;sensor_type;location;lat;lon;timestamp;temperature;humidity
31379;DHT22;61664;48.112;11.662;2022-11-15T00:01:14;7.80;72.40
31379;DHT22;61664;48.112;11.662;2022-11-15T00:03:44;7.80;72.40
31379;DHT22;61664;48.112;11.662;2022-11-15T00:06:12;7.90;72.30
31379;DHT22;61664;48.112;11.662;2022-11-15T00:08:39;7.90;72.20
31379;DHT22;61664;48.112;11.662;2022-11-15T00:11:06;7.90;72.10
31379;DHT22;61664;48.112;11.662;2022-11-15T00:13:36;7.90;72.10
31379;DHT22;61664;48.112;11.662;2022-11-15T00:16:03;7.90;72.00
31379;DHT22;61664;48.112;11.662;2022-11-15T00:18:30;7.90;72.00
31379;DHT22;61664;48.112;11.662;2022-11-15T00:21:07;7.90;72.00
31379;DHT22;61664;48.112;11.662;2022-11-15T00:23:36;7.90;71.70
31379;DHT22;61664;48.112;11.662;2022-11-15T00:26:04;7.90;71.90
31379;DHT22;61664;48.112;11.662;2022-11-15T00:28:31;7.80;71.90
31379;DHT22;61664;48.112;11.662;2022-11-15T00:31:07;7.80;71.90
31379;DHT22;61664;48.112;11.662;2022-11-15T00:33:37;7.80;71.40
31379;DHT22;61664;48.112;11.662;2022-11-15T00:36:07;7.80;72.20
31379;DHT22;61664;48.112;11.662;2022-11-15T00:38:39;7.80;71.60
31379;DHT22;61664;48.112;11.662;2022-11-15T00:41:07;7.80;71.60
31379;DHT22;61664;48.112;11.662;2022-11-15T00:43:36;7.70;71.50
31379;DHT22;61664;48.112;11.662;2022-11-15T00:46:03;7.70;71.40
31379;DHT22;61664;48.112;11.662;2022-11-15T00:48:30;7.70;71.40
31379;DHT22;61664;48.112;11.662;2022-11-15T00:50:57;7.60;71.30
31379;DHT22;61664;48.112;11.662;2022-11-15T00:53:24;7.60;71.30
31379;DHT22;61664;48.112;11.662;2022-11-15T00:55:52;7.50;71.30
31379;DHT22;61664;48.112;11.662;2022-11-15T00:58:21;7.50;71.40
31379;DHT22;61664;48.112;11.662;2022-11-15T01:00:48;7.50;71.30
31379;DHT22;61664;48.112;11.662;2022-11-15T01:03:15;7.50;71.40
31379;DHT22;61664;48.112;11.662;2022-11-15T01:05:42;7.40;71.30
31379;DHT22;61664;48.112;11.662;2022-11-15T01:08:14;7.40;71.40
31379;DHT22;61664;48.112;11.662;2022-11-15T01:10:42;7.30;71.20
31379;DHT22;61664;48.112;11.662;2022-11-15T01:13:09;7.40;71.50
31379;DHT22;61664;48.112;11.662;2022-11-15T01:15:39;7.30;71.40
31379;DHT22;61664;48.112;11.662;2022-11-15T01:18:07;7.30;71.30
31379;DHT22;61664;48.112;11.662;2022-11-15T01:20:39;7.20;71.30
31379;DHT22;61664;48.112;11.662;2022-11-15T01:23:08;7.20;71.20
31379;DHT22;61664;48.112;11.662;2022-11-15T01:25:35;7.20;71.40
31379;DHT22;61664;48.112;11.662;2022-11-15T01:28:02;7.10;71.40
31379;DHT22;61664;48.112;11.662;2022-11-15T01:30:29;7.00;71.40
31379;DHT22;61664;48.112;11.662;2022-11-15T01:32:56;7.00;71.50
31379;DHT22;61664;48.112;11.662;2022-11-15T01:35:24;7.00;71.50
31379;DHT22;61664;48.112;11.662;2022-11-15T01:37:50;6.90;71.50
31379;DHT22;61664;48.112;11.662;2022-11-15T01:40:17;6.90;71.70
31379;DHT22;61664;48.112;11.662;2022-11-15T01:42:44;6.90;71.70
31379;DHT22;61664;48.112;11.662;2022-11-15T01:45:14;6.90;71.80
31379;DHT22;61664;48.112;11.662;2022-11-15T01:47:48;6.80;71.60
31379;DHT22;61664;48.112;11.662;2022-11-15T01:50:29;6.80;71.60
31379;DHT22;61664;48.112;11.662;2022-11-15T01:52:58;6.80;71.60
31379;DHT22;61664;48.112;11.662;2022-11-15T01:55:27;6.80;71.70
31379;DHT22;61664;48.112;11.662;2022-11-15T01:57:57;6.80;71.80
31379;DHT22;61664;48.112;11.662;2022-11-15T02:00:29;6.70;71.70
31379;DHT22;61664;48.112;11.662;2022-11-15T02:02:57;6.80;71.90
31379;DHT22;61664;48.112;11.662;2022-11-15T02:05:24;6.80;72.00
31379;DHT22;61664;48.112;11.662;2022-11-15T02:07:52;6.70;72.00
31379;DHT22;61664;48.112;11.662;2022-11-15T02:10:22;6.70;72.00
31379;DHT22;61664;48.112;11.662;2022-11-15T02:12:51;6.70;71.90
31379;DHT22;61664;48.112;11.662;2022-11-15T02:15:19;6.70;72.00
31379;DHT22;61664;48.112;11.662;2022-11-15T02:17:58;6.70;72.00
31379;DHT22;61664;48.112;11.662;2022-11-15T02:20:52;6.70;72.00
31379;DHT22;61664;48.112;11.662;2022-11-15T02:23:35;6.70;71.80
31379;DHT22;61664;48.112;11.662;2022-11-15T02:27:16;6.60;71.90
31379;DHT22;61664;48.112;11.662;2022-11-15T02:36:25;6.60;71.50
31379;DHT22;61664;48.112;11.662;2022-11-15T02:39:34;6.60;71.70
31379;DHT22;61664;48.112;11.662;2022-11-15T02:42:15;6.60;71.60
31379;DHT22;61664;48.112;11.662;2022-11-15T02:45:07;6.50;71.60
31379;DHT22;61664;48.112;11.662;2022-11-15T02:47:42;6.50;71.90
31379;DHT22;61664;48.112;11.662;2022-11-15T02:50:21;6.50;71.80
31379;DHT22;61664;48.112;11.662;2022-11-15T02:52:51;6.60;71.90
31379;DHT22;61664;48.112;11.662;2022-11-15T02:55:38;6.50;71.80
31379;DHT22;61664;48.112;11.662;2022-11-15T02:58:35;6.50;71.10
31379;DHT22;61664;48.112;11.662;2022-11-15T03:01:28;6.50;71.80
31379;DHT22;61664;48.112;11.662;2022-11-15T03:07:29;6.50;71.30
31379;DHT22;61664;48.112;11.662;2022-11-15T03:10:17;6.50;70.70
31379;DHT22;61664;48.112;11.662;2022-11-15T03:15:26;6.50;71.40
31379;DHT22;61664;48.112;11.662;2022-11-15T03:18:06;6.30;71.40
31379;DHT22;61664;48.112;11.662;2022-11-15T03:20:36;6.30;71.30
31379;DHT22;61664;48.112;11.662;2022-11-15T03:23:06;6.30;71.60
31379;DHT22;61664;48.112;11.662;2022-11-15T03:25:40;6.30;71.50
31379;DHT22;61664;48.112;11.662;2022-11-15T03:28:13;6.30;71.40
31379;DHT22;61664;48.112;11.662;2022-11-15T03:30:47;6.20;71.40
31379;DHT22;61664;48.112;11.662;2022-11-15T03:33:16;6.20;71.40
31379;DHT22;61664;48.112;11.662;2022-11-15T03:35:46;6.10;71.50
31379;DHT22;61664;48.112;11.662;2022-11-15T03:41:01;6.10;71.50
31379;DHT22;61664;48.112;11.662;2022-11-15T03:43:57;6.00;71.40
31379;DHT22;61664;48.112;11.662;2022-11-15T03:46:49;6.00;71.10
31379;DHT22;61664;48.112;11.662;2022-11-15T03:49:28;5.90;71.60
31379;DHT22;61664;48.112;11.662;2022-11-15T03:52:02;5.90;71.70
31379;DHT22;61664;48.112;11.662;2022-11-15T03:54:30;5.90;71.90
31379;DHT22;61664;48.112;11.662;2022-11-15T03:56:57;5.90;72.00
31379;DHT22;61664;48.112;11.662;2022-11-15T03:59:24;5.90;72.00
31379;DHT22;61664;48.112;11.662;2022-11-15T04:01:51;5.80;72.00
31379;DHT22;61664;48.112;11.662;2022-11-15T04:04:18;5.80;72.00
31379;DHT22;61664;48.112;11.662;2022-11-15T04:06:45;5.80;72.00
31379;DHT22;61664;48.112;11.662;2022-11-15T04:09:12;5.90;72.10
31379;DHT22;61664;48.112;11.662;2022-11-15T04:11:38;5.90;72.10
31379;DHT22;61664;48.112;11.662;2022-11-15T04:14:05;5.80;72.10
31379;DHT22;61664;48.112;11.662;2022-11-15T04:16:32;5.80;72.10
31379;DHT22;61664;48.112;11.662;2022-11-15T04:18:59;5.90;72.20
31379;DHT22;61664;48.112;11.662;2022-11-15T04:21:44;5.80;72.20
31379;DHT22;61664;48.112;11.662;2022-11-15T04:24:30;5.80;72.10
31379;DHT22;61664;48.112;11.662;2022-11-15T04:26:59;5.80;72.10
31379;DHT22;61664;48.112;11.662;2022-11-15T04:29:26;5.70;72.00
31379;DHT22;61664;48.112;11.662;2022-11-15T04:32:04;5.80;72.10
31379;DHT22;61664;48.112;11.662;2022-11-15T04:34:32;5.80;72.00
31379;DHT22;61664;48.112;11.662;2022-11-15T04:36:59;5.80;72.00
31379;DHT22;61664;48.112;11.662;2022-11-15T04:39:39;5.80;72.00
31379;DHT22;61664;48.112;11.662;2022-11-15T04:42:07;5.80;72.00
31379;DHT22;61664;48.112;11.662;2022-11-15T04:44:35;5.70;72.00
31379;DHT22;61664;48.112;11.662;2022-11-15T04:47:02;5.70;72.10
31379;DHT22;61664;48.112;11.662;2022-11-15T04:49:29;5.70;72.00
31379;DHT22;61664;48.112;11.662;2022-11-15T04:51:56;5.70;72.00
31379;DHT22;61664;48.112;11.662;2022-11-15T04:54:22;5.70;72.10
31379;DHT22;61664;48.112;11.662;2022-11-15T04:56:49;5.70;72.10
31379;DHT22;61664;48.112;11.662;2022-11-15T04:59:16;5.70;72.20
31379;DHT22;61664;48.112;11.662;2022-11-15T05:01:43;5.70;72.20
31379;DHT22;61664;48.112;11.662;2022-11-15T05:04:11;5.80;72.30
31379;DHT22;61664;48.112;11.662;2022-11-15T05:06:49;5.80;72.20
31379;DHT22;61664;48.112;11.662;2022-11-15T05:09:18;5.80;72.10
31379;DHT22;61664;48.112;11.662;2022-11-15T05:11:46;5.90;72.10
31379;DHT22;61664;48.112;11.662;2022-11-15T05:14:14;5.80;72.00
31379;DHT22;61664;48.112;11.662;2022-11-15T05:16:42;5.80;72.00
31379;DHT22;61664;48.112;11.662;2022-11-15T05:19:26;5.70;71.90
31379;DHT22;61664;48.112;11.662;2022-11-15T05:21:53;5.70;71.80
31379;DHT22;61664;48.112;11.662;2022-11-15T05:24:20;5.70;71.90
31379;DHT22;61664;48.112;11.662;2022-11-15T05:26:47;5.80;71.90
31379;DHT22;61664;48.112;11.662;2022-11-15T05:29:13;5.70;71.90
31379;DHT22;61664;48.112;11.662;2022-11-15T05:31:40;5.60;71.90
31379;DHT22;61664;48.112;11.662;2022-11-15T05:34:08;5.70;72.10
31379;DHT22;61664;48.112;11.662;2022-11-15T05:36:38;5.70;72.10
31379;DHT22;61664;48.112;11.662;2022-11-15T05:39:08;5.60;72.00
31379;DHT22;61664;48.112;11.662;2022-11-15T05:41:48;5.70;72.20
31379;DHT22;61664;48.112;11.662;2022-11-15T05:44:21;5.60;71.90
31379;DHT22;61664;48.112;11.662;2022-11-15T05:46:50;5.70;72.00
31379;DHT22;61664;48.112;11.662;2022-11-15T05:49:25;5.70;72.00
31379;DHT22;61664;48.112;11.662;2022-11-15T05:51:56;5.60;72.40
31379;DHT22;61664;48.112;11.662;2022-11-15T05:54:25;5.60;72.10
31379;DHT22;61664;48.112;11.662;2022-11-15T05:56:52;5.60;72.30
31379;DHT22;61664;48.112;11.662;2022-11-15T05:59:21;5.60;72.50
31379;DHT22;61664;48.112;11.662;2022-11-15T06:01:48;5.60;72.50
31379;DHT22;61664;48.112;11.662;2022-11-15T06:04:15;5.60;72.50
31379;DHT22;61664;48.112;11.662;2022-11-15T06:06:42;5.60;72.50
31379;DHT22;61664;48.112;11.662;2022-11-15T06:09:09;5.60;72.50
31379;DHT22;61664;48.112;11.662;2022-11-15T06:11:36;5.70;72.60
31379;DHT22;61664;48.112;11.662;2022-11-15T06:14:03;5.70;72.60
31379;DHT22;61664;48.112;11.662;2022-11-15T06:16:30;5.70;72.60
31379;DHT22;61664;48.112;11.662;2022-11-15T06:18:57;5.80;72.60
31379;DHT22;61664;48.112;11.662;2022-11-15T06:21:24;5.70;72.50
31379;DHT22;61664;48.112;11.662;2022-11-15T06:23:54;5.70;72.60
31379;DHT22;61664;48.112;11.662;2022-11-15T06:26:21;5.80;72.70
31379;DHT22;61664;48.112;11.662;2022-11-15T06:28:48;5.80;72.60
31379;DHT22;61664;48.112;11.662;2022-11-15T06:31:15;5.80;72.40
31379;DHT22;61664;48.112;11.662;2022-11-15T06:33:41;5.80;72.40
31379;DHT22;61664;48.112;11.662;2022-11-15T06:36:11;5.80;72.40
31379;DHT22;61664;48.112;11.662;2022-11-15T06:38:44;5.70;72.20
31379;DHT22;61664;48.112;11.662;2022-11-15T06:41:12;5.80;72.20
31379;DHT22;61664;48.112;11.662;2022-11-15T06:43:40;5.80;72.30
31379;DHT22;61664;48.112;11.662;2022-11-15T06:46:08;5.80;72.40
31379;DHT22;61664;48.112;11.662;2022-11-15T06:48:35;5.80;72.50
31379;DHT22;61664;48.112;11.662;2022-11-15T06:51:05;5.70;72.50
31379;DHT22;61664;48.112;11.662;2022-11-15T06:53:32;5.70;72.60
31379;DHT22;61664;48.112;11.662;2022-11-15T06:56:04;5.80;72.70
31379;DHT22;61664;48.112;11.662;2022-11-15T06:58:33;5.80;72.60
31379;DHT22;61664;48.112;11.662;2022-11-15T07:01:11;5.80;72.80
31379;DHT22;61664;48.112;11.662;2022-11-15T07:03:41;5.80;72.40
31379;DHT22;61664;48.112;11.662;2022-11-15T07:06:09;5.80;72.80
31379;DHT22;61664;48.112;11.662;2022-11-15T07:08:36;5.80;73.00
31379;DHT22;61664;48.112;11.662;2022-11-15T07:11:06;5.90;73.10
31379;DHT22;61664;48.112;11.662;2022-11-15T07:13:35;5.90;73.20
31379;DHT22;61664;48.112;11.662;2022-11-15T07:16:05;5.90;73.00
31379;DHT22;61664;48.112;11.662;2022-11-15T07:18:35;6.00;73.10
31379;DHT22;61664;48.112;11.662;2022-11-15T07:21:04;6.00;73.10
31379;DHT22;61664;48.112;11.662;2022-11-15T07:23:36;6.10;73.20
31379;DHT22;61664;48.112;11.662;2022-11-15T07:26:04;6.10;73.20
31379;DHT22;61664;48.112;11.662;2022-11-15T07:28:32;6.20;73.40
31379;DHT22;61664;48.112;11.662;2022-11-15T07:31:04;6.20;73.50
31379;DHT22;61664;48.112;11.662;2022-11-15T07:33:32;6.30;73.40
31379;DHT22;61664;48.112;11.662;2022-11-15T07:36:01;6.40;73.70
31379;DHT22;61664;48.112;11.662;2022-11-15T07:38:29;6.40;73.70
31379;DHT22;61664;48.112;11.662;2022-11-15T07:40:58;6.50;73.80
31379;DHT22;61664;48.112;11.662;2022-11-15T07:43:26;6.60;73.90
31379;DHT22;61664;48.112;11.662;2022-11-15T07:45:57;6.60;74.00
31379;DHT22;61664;48.112;11.662;2022-11-15T07:48:25;6.70;74.20
31379;DHT22;61664;48.112;11.662;2022-11-15T07:51:11;6.90;74.30
31379;DHT22;61664;48.112;11.662;2022-11-15T07:53:41;7.00;74.20
31379;DHT22;61664;48.112;11.662;2022-11-15T07:56:10;7.10;74.50
31379;DHT22;61664;48.112;11.662;2022-11-15T07:58:38;7.20;74.40
31379;DHT22;61664;48.112;11.662;2022-11-15T08:01:06;7.40;74.40
31379;DHT22;61664;48.112;11.662;2022-11-15T08:03:36;7.50;74.40
31379;DHT22;61664;48.112;11.662;2022-11-15T08:06:03;7.70;74.60
31379;DHT22;61664;48.112;11.662;2022-11-15T08:08:31;7.80;74.70
31379;DHT22;61664;48.112;11.662;2022-11-15T08:10:58;7.90;74.70
31379;DHT22;61664;48.112;11.662;2022-11-15T08:13:25;8.10;74.60
31379;DHT22;61664;48.112;11.662;2022-11-15T08:15:58;8.30;74.70
31379;DHT22;61664;48.112;11.662;2022-11-15T08:18:26;8.50;74.00
31379;DHT22;61664;48.112;11.662;2022-11-15T08:20:53;8.80;75.50
31379;DHT22;61664;48.112;11.662;2022-11-15T08:23:19;9.20;76.50
31379;DHT22;61664;48.112;11.662;2022-11-15T08:25:46;9.50;76.90
31379;DHT22;61664;48.112;11.662;2022-11-15T08:28:16;10.00;77.00
31379;DHT22;61664;48.112;11.662;2022-11-15T08:30:43;10.50;75.80
31379;DHT22;61664;48.112;11.662;2022-11-15T08:33:13;11.10;76.40
31379;DHT22;61664;48.112;11.662;2022-11-15T08:35:41;11.60;75.60
31379;DHT22;61664;48.112;11.662;2022-11-15T08:38:09;12.10;75.00
31379;DHT22;61664;48.112;11.662;2022-11-15T08:40:37;12.60;74.20
31379;DHT22;61664;48.112;11.662;2022-11-15T08:43:04;13.10;73.50
31379;DHT22;61664;48.112;11.662;2022-11-15T08:45:34;13.50;72.70
31379;DHT22;61664;48.112;11.662;2022-11-15T08:48:02;13.90;71.00
31379;DHT22;61664;48.112;11.662;2022-11-15T08:50:30;14.30;70.90
31379;DHT22;61664;48.112;11.662;2022-11-15T08:52:57;14.60;70.60
31379;DHT22;61664;48.112;11.662;2022-11-15T08:55:30;14.90;69.80
31379;DHT22;61664;48.112;11.662;2022-11-15T08:57:57;15.20;68.80
31379;DHT22;61664;48.112;11.662;2022-11-15T09:00:24;15.40;68.00
31379;DHT22;61664;48.112;11.662;2022-11-15T09:02:51;15.60;67.50
31379;DHT22;61664;48.112;11.662;2022-11-15T09:05:18;15.70;66.70
31379;DHT22;61664;48.112;11.662;2022-11-15T09:07:45;15.80;66.10
31379;DHT22;61664;48.112;11.662;2022-11-15T09:10:12;15.90;65.60
31379;DHT22;61664;48.112;11.662;2022-11-15T09:12:39;15.90;65.00
31379;DHT22;61664;48.112;11.662;2022-11-15T09:15:06;16.00;64.60
31379;DHT22;61664;48.112;11.662;2022-11-15T09:17:33;16.10;64.10
31379;DHT22;61664;48.112;11.662;2022-11-15T09:20:00;16.10;63.40
31379;DHT22;61664;48.112;11.662;2022-11-15T09:22:27;16.10;63.30
31379;DHT22;61664;48.112;11.662;2022-11-15T09:24:55;16.10;63.20
31379;DHT22;61664;48.112;11.662;2022-11-15T09:27:21;16.10;63.10
31379;DHT22;61664;48.112;11.662;2022-11-15T09:29:48;16.10;63.60
31379;DHT22;61664;48.112;11.662;2022-11-15T09:32:15;16.10;62.90
31379;DHT22;61664;48.112;11.662;2022-11-15T09:34:42;16.20;62.40
31379;DHT22;61664;48.112;11.662;2022-11-15T09:37:09;16.10;62.10
31379;DHT22;61664;48.112;11.662;2022-11-15T09:39:36;16.10;61.80
31379;DHT22;61664;48.112;11.662;2022-11-15T09:45:12;16.10;57.70
31379;DHT22;61664;48.112;11.662;2022-11-15T09:50:49;16.10;61.10
31379;DHT22;61664;48.112;11.662;2022-11-15T09:53:26;16.10;58.90
31379;DHT22;61664;48.112;11.662;2022-11-15T09:56:22;16.10;58.00
31379;DHT22;61664;48.112;11.662;2022-11-15T09:59:23;16.30;60.70
31379;DHT22;61664;48.112;11.662;2022-11-15T10:04:58;16.10;57.60
31379;DHT22;61664;48.112;11.662;2022-11-15T10:07:44;16.10;61.90
31379;DHT22;61664;48.112;11.662;2022-11-15T10:10:35;16.20;57.40
31379;DHT22;61664;48.112;11.662;2022-11-15T10:13:16;16.30;61.10
31379;DHT22;61664;48.112;11.662;2022-11-15T10:15:47;16.50;60.80
31379;DHT22;61664;48.112;11.662;2022-11-15T10:21:18;16.90;63.40
31379;DHT22;61664;48.112;11.662;2022-11-15T10:23:48;17.30;58.70
31379;DHT22;61664;48.112;11.662;2022-11-15T10:26:17;17.50;61.30
31379;DHT22;61664;48.112;11.662;2022-11-15T10:28:44;17.60;59.40
31379;DHT22;61664;48.112;11.662;2022-11-15T10:31:28;17.60;58.10
31379;DHT22;61664;48.112;11.662;2022-11-15T10:34:14;17.60;56.00
31379;DHT22;61664;48.112;11.662;2022-11-15T10:36:57;17.50;54.40
31379;DHT22;61664;48.112;11.662;2022-11-15T10:39:25;17.50;55.30
31379;DHT22;61664;48.112;11.662;2022-11-15T10:41:54;17.50;59.90
31379;DHT22;61664;48.112;11.662;2022-11-15T10:44:45;17.60;59.70
31379;DHT22;61664;48.112;11.662;2022-11-15T10:47:27;17.80;59.80
31379;DHT22;61664;48.112;11.662;2022-11-15T10:50:26;18.00;56.30
31379;DHT22;61664;48.112;11.662;2022-11-15T10:52:55;18.40;56.50
31379;DHT22;61664;48.112;11.662;2022-11-15T10:55:26;18.80;62.30
31379;DHT22;61664;48.112;11.662;2022-11-15T10:58:09;19.20;59.90
31379;DHT22;61664;48.112;11.662;2022-11-15T11:00:47;19.60;58.50
31379;DHT22;61664;48.112;11.662;2022-11-15T11:03:34;20.10;61.30
31379;DHT22;61664;48.112;11.662;2022-11-15T11:06:17;20.50;54.30
31379;DHT22;61664;48.112;11.662;2022-11-15T11:12:10;20.90;51.90
31379;DHT22;61664;48.112;11.662;2022-11-15T11:14:39;20.90;53.90
31379;DHT22;61664;48.112;11.662;2022-11-15T11:20:34;20.40;50.10
31379;DHT22;61664;48.112;11.662;2022-11-15T11:26:50;20.00;50.20
31379;DHT22;61664;48.112;11.662;2022-11-15T11:38:37;19.20;54.70
31379;DHT22;61664;48.112;11.662;2022-11-15T11:47:31;18.60;51.90
31379;DHT22;61664;48.112;11.662;2022-11-15T11:50:26;18.30;51.20
31379;DHT22;61664;48.112;11.662;2022-11-15T11:52:57;18.10;51.50
31379;DHT22;61664;48.112;11.662;2022-11-15T11:58:34;17.70;52.60
31379;DHT22;61664;48.112;11.662;2022-11-15T12:01:27;17.60;51.90
31379;DHT22;61664;48.112;11.662;2022-11-15T12:06:35;17.30;54.50
31379;DHT22;61664;48.112;11.662;2022-11-15T12:15:03;17.20;52.90
31379;DHT22;61664;48.112;11.662;2022-11-15T12:17:39;17.20;54.80
31379;DHT22;61664;48.112;11.662;2022-11-15T12:20:18;17.20;55.50
31379;DHT22;61664;48.112;11.662;2022-11-15T12:22:49;17.20;52.30
31379;DHT22;61664;48.112;11.662;2022-11-15T12:25:32;17.20;55.00
31379;DHT22;61664;48.112;11.662;2022-11-15T12:30:50;17.10;52.10
31379;DHT22;61664;48.112;11.662;2022-11-15T12:33:38;17.10;55.50
31379;DHT22;61664;48.112;11.662;2022-11-15T12:41:31;17.00;55.50
31379;DHT22;61664;48.112;11.662;2022-11-15T12:43:59;17.00;54.10
31379;DHT22;61664;48.112;11.662;2022-11-15T12:49:02;17.00;54.20
31379;DHT22;61664;48.112;11.662;2022-11-15T12:59:51;17.10;54.40
31379;DHT22;61664;48.112;11.662;2022-11-15T13:03:18;17.10;52.60
31379;DHT22;61664;48.112;11.662;2022-11-15T13:05:57;17.10;52.30
31379;DHT22;61664;48.112;11.662;2022-11-15T13:08:40;17.00;53.00
31379;DHT22;61664;48.112;11.662;2022-11-15T13:11:50;17.20;52.90
31379;DHT22;61664;48.112;11.662;2022-11-15T13:17:46;17.20;52.80
31379;DHT22;61664;48.112;11.662;2022-11-15T13:23:09;17.30;55.30
31379;DHT22;61664;48.112;11.662;2022-11-15T13:31:19;17.40;52.80
31379;DHT22;61664;48.112;11.662;2022-11-15T13:33:50;17.50;52.60
31379;DHT22;61664;48.112;11.662;2022-11-15T13:36:22;17.50;55.20
31379;DHT22;61664;48.112;11.662;2022-11-15T13:38:55;17.50;54.60
31379;DHT22;61664;48.112;11.662;2022-11-15T13:41:29;17.60;53.70
31379;DHT22;61664;48.112;11.662;2022-11-15T13:43:58;17.70;54.60
31379;DHT22;61664;48.112;11.662;2022-11-15T13:46:31;17.70;54.90
31379;DHT22;61664;48.112;11.662;2022-11-15T13:49:09;17.80;53.80
31379;DHT22;61664;48.112;11.662;2022-11-15T13:51:52;17.80;52.10
31379;DHT22;61664;48.112;11.662;2022-11-15T13:54:25;17.90;53.50
31379;DHT22;61664;48.112;11.662;2022-11-15T13:56:59;18.00;53.30
31379;DHT22;61664;48.112;11.662;2022-11-15T13:59:37;18.00;53.70
31379;DHT22;61664;48.112;11.662;2022-11-15T14:02:14;18.10;53.30
31379;DHT22;61664;48.112;11.662;2022-11-15T14:04:53;18.30;54.80
31379;DHT22;61664;48.112;11.662;2022-11-15T14:07:28;18.50;52.80
31379;DHT22;61664;48.112;11.662;2022-11-15T14:09:56;18.70;54.40
31379;DHT22;61664;48.112;11.662;2022-11-15T14:12:30;18.80;54.70
31379;DHT22;61664;48.112;11.662;2022-11-15T14:14:59;18.90;54.30
31379;DHT22;61664;48.112;11.662;2022-11-15T14:17:45;18.90;53.80
31379;DHT22;61664;48.112;11.662;2022-11-15T14:20:26;18.80;53.60
31379;DHT22;61664;48.112;11.662;2022-11-15T14:22:59;18.80;50.60
31379;DHT22;61664;48.112;11.662;2022-11-15T14:25:29;18.70;53.00
31379;DHT22;61664;48.112;11.662;2022-11-15T14:30:48;18.40;50.60
31379;DHT22;61664;48.112;11.662;2022-11-15T14:36:04;18.10;54.00
31379;DHT22;61664;48.112;11.662;2022-11-15T14:38:36;18.00;52.70
31379;DHT22;61664;48.112;11.662;2022-11-15T14:41:03;17.90;53.90
31379;DHT22;61664;48.112;11.662;2022-11-15T14:43:31;17.70;53.80
31379;DHT22;61664;48.112;11.662;2022-11-15T14:45:58;17.60;53.70
31379;DHT22;61664;48.112;11.662;2022-11-15T14:48:25;17.50;53.50
31379;DHT22;61664;48.112;11.662;2022-11-15T14:50:52;17.30;53.40
31379;DHT22;61664;48.112;11.662;2022-11-15T14:53:19;17.20;53.80
31379;DHT22;61664;48.112;11.662;2022-11-15T14:55:47;17.10;53.90
31379;DHT22;61664;48.112;11.662;2022-11-15T14:58:14;17.00;54.30
31379;DHT22;61664;48.112;11.662;2022-11-15T15:00:41;16.90;54.90
31379;DHT22;61664;48.112;11.662;2022-11-15T15:03:09;16.80;54.70
31379;DHT22;61664;48.112;11.662;2022-11-15T15:05:41;16.70;55.00
31379;DHT22;61664;48.112;11.662;2022-11-15T15:08:10;16.60;54.60
31379;DHT22;61664;48.112;11.662;2022-11-15T15:10:43;16.50;55.40
31379;DHT22;61664;48.112;11.662;2022-11-15T15:13:22;16.30;55.40
31379;DHT22;61664;48.112;11.662;2022-11-15T15:15:51;16.20;54.70
31379;DHT22;61664;48.112;11.662;2022-11-15T15:18:19;16.10;56.10
31379;DHT22;61664;48.112;11.662;2022-11-15T15:20:57;15.90;56.40
31379;DHT22;61664;48.112;11.662;2022-11-15T15:23:33;15.80;55.50
31379;DHT22;61664;48.112;11.662;2022-11-15T15:26:02;15.70;56.60
31379;DHT22;61664;48.112;11.662;2022-11-15T15:28:29;15.50;56.70
31379;DHT22;61664;48.112;11.662;2022-11-15T15:31:00;15.40;56.80
31379;DHT22;61664;48.112;11.662;2022-11-15T15:33:28;15.30;56.90
31379;DHT22;61664;48.112;11.662;2022-11-15T15:35:54;15.10;57.00
31379;DHT22;61664;48.112;11.662;2022-11-15T15:38:21;15.00;57.20
31379;DHT22;61664;48.112;11.662;2022-11-15T15:40:49;14.90;57.30
31379;DHT22;61664;48.112;11.662;2022-11-15T15:43:17;14.80;57.60
31379;DHT22;61664;48.112;11.662;2022-11-15T15:45:44;14.70;57.70
31379;DHT22;61664;48.112;11.662;2022-11-15T15:48:16;14.50;57.80
31379;DHT22;61664;48.112;11.662;2022-11-15T15:50:43;14.40;57.90
31379;DHT22;61664;48.112;11.662;2022-11-15T15:53:12;14.30;58.10
31379;DHT22;61664;48.112;11.662;2022-11-15T15:55:40;14.10;58.30
31379;DHT22;61664;48.112;11.662;2022-11-15T15:58:07;14.00;58.40
31379;DHT22;61664;48.112;11.662;2022-11-15T16:00:35;13.90;58.60
31379;DHT22;61664;48.112;11.662;2022-11-15T16:03:03;13.80;58.80
31379;DHT22;61664;48.112;11.662;2022-11-15T16:05:30;13.70;59.00
31379;DHT22;61664;48.112;11.662;2022-11-15T16:07:57;13.60;59.10
31379;DHT22;61664;48.112;11.662;2022-11-15T16:10:28;13.50;59.30
31379;DHT22;61664;48.112;11.662;2022-11-15T16:12:57;13.30;59.30
31379;DHT22;61664;48.112;11.662;2022-11-15T16:15:27;13.30;59.60
31379;DHT22;61664;48.112;11.662;2022-11-15T16:17:58;13.20;60.00
31379;DHT22;61664;48.112;11.662;2022-11-15T16:20:34;13.10;60.30
31379;DHT22;61664;48.112;11.662;2022-11-15T16:23:09;13.10;60.50
31379;DHT22;61664;48.112;11.662;2022-11-15T16:25:54;13.00;60.80
31379;DHT22;61664;48.112;11.662;2022-11-15T16:28:27;13.00;60.80
31379;DHT22;61664;48.112;11.662;2022-11-15T16:31:04;12.90;61.20
31379;DHT22;61664;48.112;11.662;2022-11-15T16:33:31;12.90;61.30
31379;DHT22;61664;48.112;11.662;2022-11-15T16:35:59;12.90;61.50
31379;DHT22;61664;48.112;11.662;2022-11-15T16:38:26;12.90;61.60
31379;DHT22;61664;48.112;11.662;2022-11-15T16:40:53;12.80;61.60
31379;DHT22;61664;48.112;11.662;2022-11-15T16:43:20;12.80;61.70
31379;DHT22;61664;48.112;11.662;2022-11-15T16:45:49;12.80;61.80
31379;DHT22;61664;48.112;11.662;2022-11-15T16:48:25;12.70;61.80
31379;DHT22;61664;48.112;11.662;2022-11-15T16:50:57;12.70;61.70
31379;DHT22;61664;48.112;11.662;2022-11-15T16:53:25;12.60;62.00
31379;DHT22;61664;48.112;11.662;2022-11-15T16:55:56;12.60;62.20
31379;DHT22;61664;48.112;11.662;2022-11-15T16:58:23;12.50;62.20
31379;DHT22;61664;48.112;11.662;2022-11-15T17:00:52;12.50;62.40
31379;DHT22;61664;48.112;11.662;2022-11-15T17:03:23;12.50;62.50
31379;DHT22;61664;48.112;11.662;2022-11-15T17:05:51;12.40;62.50
31379;DHT22;61664;48.112;11.662;2022-11-15T17:08:18;12.40;62.60
31379;DHT22;61664;48.112;11.662;2022-11-15T17:10:47;12.40;62.60
31379;DHT22;61664;48.112;11.662;2022-11-15T17:13:14;12.30;62.70
31379;DHT22;61664;48.112;11.662;2022-11-15T17:15:42;12.30;62.80
31379;DHT22;61664;48.112;11.662;2022-11-15T17:18:10;12.30;63.00
31379;DHT22;61664;48.112;11.662;2022-11-15T17:20:39;12.20;62.90
31379;DHT22;61664;48.112;11.662;2022-11-15T17:23:12;12.20;63.00
31379;DHT22;61664;48.112;11.662;2022-11-15T17:25:40;12.20;63.10
31379;DHT22;61664;48.112;11.662;2022-11-15T17:28:07;12.10;63.20
31379;DHT22;61664;48.112;11.662;2022-11-15T17:30:35;12.10;63.30
31379;DHT22;61664;48.112;11.662;2022-11-15T17:33:02;12.00;63.30